Time;durP1;ratioP1;P1;durP2;ratioP2;P2;SDS_P1;SDS_P2;PMS_P1;PMS_P2;Temp;Humidity;BMP_temperature;BMP_pressure;BME280_temperature;BME280_humidity;BME280_pressure;Samples;Min_cycle;Max_cycle;Signal;HPM_P1;HPM_P2
2022/04/29 04:00:14;;;;;;;18.47;13.53;;;5.20;99.90;;;;;;6105477;23;20014;31
2022/04/29 04:02:41;;;;;;;17.63;13.48;;;5.20;99.90;;;;;;4953737;28;20225;-73
2022/04/29 04:05:07;;;;;;;22.70;13.45;;;5.30;99.90;;;;;;4956425;28;20184;-73
2022/04/29 04:07:33;;;;;;;18.63;13.43;;;5.30;99.90;;;;;;4957012;28;20040;-73
2022/04/29 04:09:59;;;;;;;15.88;11.85;;;5.20;99.90;;;;;;4957444;28;20035;-72
2022/04/29 04:12:25;;;;;;;16.50;11.85;;;5.20;99.90;;;;;;4957276;28;20039;-73
2022/04/29 04:14:51;;;;;;;13.82;11.32;;;5.20;99.90;;;;;;4956885;28;20119;-73
2022/04/29 04:17:17;;;;;;;15.38;11.90;;;5.20;99.90;;;;;;4955946;28;20138;-74
2022/04/29 04:19:42;;;;;;;14.45;11.18;;;5.30;99.90;;;;;;4938230;28;20063;-73
2022/04/29 04:22:08;;;;;;;15.65;11.90;;;5.30;99.90;;;;;;4956968;28;20043;-74
2022/04/29 04:24:33;;;;;;;15.45;12.27;;;5.30;99.90;;;;;;4956847;28;20046;-73
2022/04/29 04:26:59;;;;;;;15.02;12.40;;;5.30;99.90;;;;;;4938343;28;20428;-73
2022/04/29 04:29:25;;;;;;;16.05;12.48;;;5.30;99.90;;;;;;4966635;28;20397;-74
2022/04/29 04:31:51;;;;;;;14.95;11.82;;;5.40;99.90;;;;;;4955270;28;20039;-75
2022/04/29 04:37:01;;;;;;;18.00;12.32;;;5.40;99.90;;;;;;4939647;28;20048;-73
2022/04/29 04:39:27;;;;;;;14.43;11.07;;;5.50;99.90;;;;;;4951846;28;20497;-73
2022/04/29 04:41:52;;;;;;;13.13;10.77;;;5.40;99.90;;;;;;4954942;28;20126;-72
2022/04/29 04:44:18;;;;;;;12.02;10.35;;;5.50;99.90;;;;;;4956671;28;20083;-73
2022/04/29 04:46:44;;;;;;;14.73;11.20;;;5.50;99.90;;;;;;4941801;28;20047;-74
2022/04/29 04:49:11;;;;;;;14.23;11.82;;;5.50;99.90;;;;;;4949335;28;20512;-74
2022/04/29 04:51:37;;;;;;;13.93;11.23;;;5.50;99.90;;;;;;4956635;28;20031;-74
2022/04/29 04:54:03;;;;;;;15.48;12.13;;;5.60;99.90;;;;;;4956611;28;20060;-74
2022/04/29 04:56:29;;;;;;;16.60;12.25;;;5.60;99.90;;;;;;4956180;28;20040;-75
2022/04/29 04:58:58;;;;;;;19.55;12.88;;;5.60;99.90;;;;;;4946277;28;20040;-72
2022/04/29 05:01:23;;;;;;;17.80;12.48;;;5.70;99.90;;;;;;4951421;28;20040;-74
2022/04/29 05:03:49;;;;;;;17.05;12.13;;;5.80;99.90;;;;;;4946717;28;20040;-72
2022/04/29 05:06:14;;;;;;;19.27;12.27;;;5.90;99.90;;;;;;4942571;28;20127;-73
2022/04/29 05:08:43;;;;;;;14.60;12.05;;;5.90;99.90;;;;;;4944653;28;20472;-74
2022/04/29 05:11:08;;;;;;;16.00;11.55;;;6.00;99.90;;;;;;4945677;28;20044;-73
2022/04/29 05:13:34;;;;;;;15.52;11.68;;;6.00;99.90;;;;;;4952488;28;20553;-74
2022/04/29 05:15:59;;;;;;;13.60;11.40;;;6.10;99.90;;;;;;4947678;28;20052;-73
2022/04/29 05:18:25;;;;;;;14.20;11.40;;;6.20;99.90;;;;;;4936888;29;20044;-74
2022/04/29 05:20:50;;;;;;;14.77;11.88;;;6.20;99.90;;;;;;4944974;28;20039;-73
2022/04/29 05:23:16;;;;;;;16.40;12.35;;;6.30;99.90;;;;;;4955857;28;20036;-74
2022/04/29 05:25:42;;;;;;;17.63;13.07;;;6.40;99.90;;;;;;4955391;28;20489;-75
2022/04/29 05:28:07;;;;;;;14.48;12.13;;;6.50;99.90;;;;;;4938688;28;20091;-73
2022/04/29 05:30:34;;;;;;;14.88;11.38;;;6.50;99.90;;;;;;4941174;28;20042;-72
2022/04/29 05:33:00;;;;;;;16.83;12.40;;;6.60;99.90;;;;;;4950989;28;20055;-72
2022/04/29 05:35:26;;;;;;;14.65;12.18;;;6.70;99.90;;;;;;4944647;28;20028;-73
2022/04/29 05:37:51;;;;;;;14.63;11.73;;;6.80;99.90;;;;;;4936834;29;20483;-73
2022/04/29 05:43:02;;;;;;;14.25;11.80;;;6.90;99.90;;;;;;4956145;28;20035;-73
2022/04/29 05:45:28;;;;;;;15.80;11.60;;;6.90;99.90;;;;;;4953940;28;20118;-74
2022/04/29 05:47:54;;;;;;;15.05;11.90;;;7.00;99.90;;;;;;4938295;28;20040;-73
2022/04/29 05:50:19;;;;;;;13.45;10.60;;;7.20;99.90;;;;;;4956050;28;20197;-74
2022/04/29 05:52:45;;;;;;;12.98;10.40;;;7.30;99.90;;;;;;4949519;28;20036;-73
2022/04/29 05:55:11;;;;;;;11.45;10.20;;;7.40;99.90;;;;;;4939872;29;20036;-73
2022/04/29 05:57:37;;;;;;;14.52;10.20;;;7.50;99.90;;;;;;4939889;28;20052;-72
2022/04/29 06:00:03;;;;;;;14.02;10.73;;;7.70;99.90;;;;;;4970079;28;20040;-73
2022/04/29 06:02:29;;;;;;;12.93;10.05;;;7.80;99.90;;;;;;4959245;28;20048;-74
2022/04/29 06:04:54;;;;;;;16.13;11.23;;;8.00;99.90;;;;;;4958563;28;20366;-74
2022/04/29 06:07:20;;;;;;;16.10;10.77;;;8.30;99.90;;;;;;4959415;28;20597;-82
2022/04/29 06:09:45;;;;;;;14.88;11.75;;;8.50;99.90;;;;;;4958213;28;20036;-76
2022/04/29 06:12:11;;;;;;;13.35;11.02;;;8.70;99.90;;;;;;4959228;28;20048;-77
2022/04/29 06:14:37;;;;;;;12.90;11.00;;;9.00;99.90;;;;;;4959017;28;20032;-76
2022/04/29 06:17:03;;;;;;;15.13;10.30;;;9.20;99.90;;;;;;4959450;28;20113;-81
2022/04/29 06:19:31;;;;;;;13.55;10.90;;;9.50;99.90;;;;;;4974134;28;20042;-76
2022/04/29 06:21:57;;;;;;;12.05;10.82;;;9.60;99.90;;;;;;4958821;28;20050;-74
2022/04/29 06:24:23;;;;;;;13.60;11.27;;;9.70;99.90;;;;;;4959298;28;20508;-77
2022/04/29 06:26:48;;;;;;;13.52;11.63;;;10.10;99.90;;;;;;4959014;28;20031;-74
2022/04/29 06:29:15;;;;;;;15.23;10.82;;;10.30;99.90;;;;;;4958004;28;20035;-75
2022/04/29 06:31:40;;;;;;;13.18;11.05;;;10.30;99.90;;;;;;4957297;28;20642;-75
2022/04/29 06:34:06;;;;;;;15.05;11.25;;;10.30;99.90;;;;;;4957099;28;20086;-75
2022/04/29 06:36:32;;;;;;;14.43;11.25;;;10.30;99.90;;;;;;4958867;28;20042;-75
2022/04/29 06:38:57;;;;;;;14.85;10.88;;;10.40;99.90;;;;;;4958892;28;20042;-76
2022/04/29 06:41:26;;;;;;;12.60;10.48;;;10.50;99.90;;;;;;4958274;28;20114;-76
2022/04/29 06:43:53;;;;;;;13.18;10.63;;;10.60;99.90;;;;;;4939525;28;20055;-77
2022/04/29 06:46:19;;;;;;;14.43;10.90;;;10.60;99.90;;;;;;4939229;28;20032;-77
2022/04/29 06:48:45;;;;;;;13.10;10.25;;;10.70;99.90;;;;;;4947549;28;20036;-77
2022/04/29 06:51:11;;;;;;;13.13;11.02;;;10.80;99.90;;;;;;4947195;28;20490;-77
2022/04/29 06:53:40;;;;;;;14.63;10.68;;;10.90;99.90;;;;;;4940541;28;20388;-78
2022/04/29 06:56:06;;;;;;;12.80;10.50;;;11.10;99.90;;;;;;4962495;28;20532;-78
2022/04/29 06:58:32;;;;;;;15.25;10.23;;;11.20;99.90;;;;;;4958215;28;20067;-76
2022/04/29 07:00:57;;;;;;;13.90;11.02;;;11.30;99.90;;;;;;4945518;28;20127;-76
2022/04/29 07:03:23;;;;;;;16.55;10.88;;;11.30;99.90;;;;;;4939015;28;20152;-77
2022/04/29 07:05:51;;;;;;;12.60;10.80;;;11.50;99.90;;;;;;4955559;28;20039;-77
2022/04/29 07:08:17;;;;;;;13.57;10.80;;;11.70;99.90;;;;;;4948421;28;20032;-76
2022/04/29 07:10:42;;;;;;;12.25;10.95;;;11.90;99.90;;;;;;4937060;28;20106;-75
2022/04/29 07:13:09;;;;;;;16.52;10.30;;;12.10;99.90;;;;;;4956971;28;20508;-76
2022/04/29 07:15:37;;;;;;;16.15;11.05;;;12.10;99.90;;;;;;4938455;28;20477;-77
2022/04/29 07:18:03;;;;;;;12.65;10.63;;;12.20;99.90;;;;;;4939528;28;20076;-75
2022/04/29 07:20:28;;;;;;;13.90;10.77;;;12.50;99.90;;;;;;4953573;28;20051;-75
2022/04/29 07:22:54;;;;;;;12.05;10.85;;;12.90;99.90;;;;;;4959216;28;20067;-76
2022/04/29 07:25:20;;;;;;;12.02;10.73;;;13.20;99.90;;;;;;4957708;28;20171;-76
2022/04/29 07:27:46;;;;;;;12.98;10.30;;;13.40;99.90;;;;;;4956611;28;20040;-77
2022/04/29 07:30:12;;;;;;;11.77;9.63;;;13.60;99.90;;;;;;4956775;28;20070;-76
2022/04/29 07:32:38;;;;;;;13.85;10.90;;;14.00;99.90;;;;;;4942699;28;20050;-77
2022/04/29 07:43:16;;;;;;;14.18;10.60;;;14.30;99.90;;;;;;4958755;28;20047;-76
2022/04/29 07:45:42;;;;;;;15.60;11.00;;;14.60;99.90;;;;;;4958943;28;20027;-77
2022/04/29 07:48:08;;;;;;;13.52;10.13;;;14.60;99.90;;;;;;4958818;28;20376;-76
2022/04/29 07:50:35;;;;;;;12.45;11.15;;;14.60;99.90;;;;;;4959206;28;20032;-75
2022/04/29 07:53:02;;;;;;;13.18;10.75;;;14.60;99.90;;;;;;4958284;28;20662;-75
2022/04/29 07:55:28;;;;;;;15.43;10.63;;;14.80;99.90;;;;;;4957840;28;20047;-77
2022/04/29 07:57:55;;;;;;;11.95;10.63;;;15.00;99.90;;;;;;4955175;28;20047;-76
2022/04/29 08:00:21;;;;;;;13.45;11.00;;;15.20;98.60;;;;;;4955563;28;20031;-76
2022/04/29 08:02:47;;;;;;;14.20;11.32;;;15.10;99.90;;;;;;4957592;28;20583;-76
2022/04/29 08:05:13;;;;;;;12.13;10.40;;;15.20;98.90;;;;;;4957408;28;20128;-75
2022/04/29 08:07:39;;;;;;;12.63;11.00;;;15.10;99.30;;;;;;4956211;28;20032;-76
2022/04/29 08:10:05;;;;;;;12.13;10.93;;;15.00;99.90;;;;;;4957196;28;20032;-76
2022/04/29 08:12:31;;;;;;;14.02;11.30;;;15.00;98.80;;;;;;4955786;28;20036;-77
2022/04/29 08:14:56;;;;;;;13.93;11.05;;;15.00;99.90;;;;;;4957061;28;20031;-76
2022/04/29 08:17:22;;;;;;;13.40;11.35;;;14.90;99.90;;;;;;4955035;28;20051;-77
2022/04/29 08:19:49;;;;;;;12.77;10.80;;;14.80;99.90;;;;;;4957443;28;20040;-76
2022/04/29 08:22:15;;;;;;;11.85;10.45;;;15.00;99.90;;;;;;4957219;28;20051;-76
2022/04/29 08:24:41;;;;;;;13.00;10.18;;;15.60;98.70;;;;;;4956819;28;20032;-76
2022/04/29 08:27:10;;;;;;;15.13;10.57;;;15.60;98.10;;;;;;4956732;28;20035;-79
2022/04/29 08:29:37;;;;;;;13.95;10.23;;;15.70;98.00;;;;;;4956930;28;20032;-75
2022/04/29 08:32:04;;;;;;;11.77;10.15;;;16.00;98.10;;;;;;4954747;28;20494;-75
2022/04/29 08:34:30;;;;;;;13.75;10.43;;;16.30;97.40;;;;;;4957495;28;20039;-75
2022/04/29 08:36:55;;;;;;;14.93;10.50;;;16.50;97.70;;;;;;4956733;28;20073;-75
2022/04/29 08:39:21;;;;;;;16.27;10.45;;;16.90;97.70;;;;;;4956608;28;20414;-75
2022/04/29 08:41:51;;;;;;;12.35;9.80;;;16.90;96.40;;;;;;4956784;28;20518;-74
2022/04/29 08:44:18;;;;;;;11.25;10.02;;;17.30;96.90;;;;;;4956907;28;20034;-75
2022/04/29 08:46:45;;;;;;;17.98;10.77;;;17.40;96.60;;;;;;4956609;28;20031;-76
2022/04/29 08:49:11;;;;;;;14.77;10.07;;;17.70;95.10;;;;;;4954933;28;20122;-75
2022/04/29 08:51:39;;;;;;;12.80;9.77;;;17.70;95.80;;;;;;4953681;28;20420;-76
2022/04/29 08:54:05;;;;;;;13.75;11.02;;;18.10;93.30;;;;;;4940356;28;20789;-79
2022/04/29 08:59:25;;;;;;;13.85;9.80;;;18.20;92.50;;;;;;4956409;28;20036;-76
2022/04/29 09:01:52;;;;;;;12.57;9.65;;;18.60;92.70;;;;;;4956153;28;20063;-76
2022/04/29 09:04:18;;;;;;;11.63;8.93;;;19.00;91.50;;;;;;4956589;28;20042;-76
2022/04/29 09:06:48;;;;;;;12.48;9.07;;;19.00;90.60;;;;;;4951937;28;20418;-76
2022/04/29 09:09:14;;;;;;;18.80;9.65;;;19.10;90.50;;;;;;4937427;29;20036;-76
2022/04/29 09:11:39;;;;;;;14.35;8.80;;;19.40;90.00;;;;;;4949113;28;20074;-76
2022/04/29 09:14:19;;;;;;;11.82;8.52;;;19.70;87.70;;;;;;4958318;28;20051;-82
2022/04/29 09:16:45;;;;;;;10.85;8.20;;;19.80;87.70;;;;;;4975768;28;20054;-79
2022/04/29 09:19:31;;;;;;;10.95;7.90;;;19.90;89.20;;;;;;4968077;28;20031;-80
2022/04/29 09:22:09;;;;;;;9.52;7.07;;;19.80;87.00;;;;;;4986665;28;20052;-77
2022/04/29 09:24:35;;;;;;;10.40;7.88;;;20.40;84.70;;;;;;4971536;28;20032;-77
2022/04/29 09:27:03;;;;;;;9.48;7.95;;;20.80;82.10;;;;;;4949361;28;20410;-75
2022/04/29 09:29:29;;;;;;;10.55;7.88;;;20.80;79.60;;;;;;4956911;28;20039;-79
2022/04/29 09:32:00;;;;;;;8.75;7.80;;;21.10;76.90;;;;;;4958887;28;20040;-78
2022/04/29 09:34:58;;;;;;;8.70;6.70;;;21.30;75.50;;;;;;4964608;28;20095;-76
2022/04/29 09:37:29;;;;;;;6.35;5.18;;;21.30;73.10;;;;;;4956788;28;20103;-77
2022/04/29 09:39:56;;;;;;;8.65;5.47;;;21.00;68.60;;;;;;4958050;28;20035;-76
2022/04/29 09:42:21;;;;;;;7.97;5.07;;;20.70;68.70;;;;;;4956937;28;20569;-81
2022/04/29 09:44:47;;;;;;;7.53;5.03;;;20.60;66.40;;;;;;4950395;28;20040;-77
2022/04/29 09:47:21;;;;;;;7.03;5.32;;;20.50;67.20;;;;;;4977056;28;20043;-74
2022/04/29 09:49:55;;;;;;;6.22;4.57;;;20.20;65.40;;;;;;4972068;28;20031;-79
2022/04/29 09:52:30;;;;;;;6.38;4.38;;;19.90;65.80;;;;;;4957435;28;20042;-73
2022/04/29 09:55:12;;;;;;;6.93;4.45;;;19.60;67.30;;;;;;4949618;28;20094;-75
2022/04/29 09:57:49;;;;;;;5.47;3.83;;;19.80;66.90;;;;;;4950473;28;20139;-75
2022/04/29 10:00:15;;;;;;;5.25;4.25;;;19.90;67.30;;;;;;4939952;29;20529;-75
2022/04/29 10:02:41;;;;;;;7.82;5.85;;;19.90;66.40;;;;;;4940342;28;20044;-75
2022/04/29 10:05:07;;;;;;;7.28;4.75;;;20.00;67.40;;;;;;4940032;29;20446;-75
2022/04/29 10:07:33;;;;;;;7.50;5.53;;;20.20;69.40;;;;;;4939573;28;20048;-75
2022/04/29 10:09:59;;;;;;;5.85;4.68;;;20.60;68.00;;;;;;4944239;28;20047;-75
2022/04/29 10:12:27;;;;;;;7.10;4.72;;;20.70;67.60;;;;;;4948579;28;20047;-75
2022/04/29 10:14:59;;;;;;;7.63;4.88;;;20.90;64.60;;;;;;4943466;28;20059;-75
2022/04/29 10:23:15;;;;;;;7.53;3.25;;;21.40;58.80;;;;;;4942774;28;20107;-74
2022/04/29 10:25:45;;;;;;;4.53;3.35;;;21.60;62.10;;;;;;4958305;28;20066;-74
2022/04/29 10:28:25;;;;;;;6.07;3.10;;;21.90;60.40;;;;;;4955640;28;20036;-74
2022/04/29 10:31:06;;;;;;;3.30;2.97;;;22.20;59.90;;;;;;4940124;28;20036;-75
2022/04/29 10:33:36;;;;;;;5.43;3.17;;;22.30;57.20;;;;;;4940359;28;20031;-76
2022/04/29 10:36:08;;;;;;;6.53;3.53;;;22.30;58.30;;;;;;4939111;29;20034;-77
2022/04/29 10:38:37;;;;;;;4.43;3.20;;;22.00;60.90;;;;;;4938556;29;20131;-78
2022/04/29 10:41:13;;;;;;;5.82;3.67;;;22.10;59.60;;;;;;4954116;28;20067;-77
2022/04/29 10:43:59;;;;;;;7.03;3.80;;;22.20;57.30;;;;;;4939371;29;20040;-77
2022/04/29 10:46:39;;;;;;;5.10;3.95;;;22.40;57.80;;;;;;4939334;28;20040;-76
2022/04/29 10:49:25;;;;;;;4.50;3.60;;;22.20;58.80;;;;;;4939692;29;20039;-77
2022/04/29 10:51:52;;;;;;;6.03;3.95;;;22.10;57.40;;;;;;4937808;28;20040;-76
2022/04/29 10:54:33;;;;;;;4.20;3.80;;;22.80;59.60;;;;;;4957127;28;20111;-74
2022/04/29 10:57:02;;;;;;;3.97;3.60;;;23.50;55.90;;;;;;4956432;28;20043;-75
2022/04/29 10:59:47;;;;;;;6.60;4.22;;;23.80;57.30;;;;;;4958228;28;20945;-75
2022/04/29 11:02:23;;;;;;;4.80;3.25;;;23.50;55.40;;;;;;4946851;28;20044;-74
2022/04/29 11:04:52;;;;;;;4.15;3.60;;;23.40;55.60;;;;;;4946936;28;20024;-74
2022/04/29 11:07:42;;;;;;;3.70;3.15;;;23.30;54.10;;;;;;4958132;28;20028;-74
2022/04/29 11:10:10;;;;;;;3.63;3.30;;;23.60;54.40;;;;;;4944076;28;20072;-73
2022/04/29 11:12:39;;;;;;;3.33;3.00;;;23.70;55.90;;;;;;4939850;28;20119;-75
2022/04/29 11:15:09;;;;;;;5.55;3.10;;;23.30;54.10;;;;;;4938775;29;20039;-74
2022/04/29 11:17:36;;;;;;;3.25;2.95;;;23.40;55.10;;;;;;4938767;29;20087;-73
2022/04/29 11:20:22;;;;;;;3.80;3.30;;;23.40;54.90;;;;;;4970977;28;20036;-75
2022/04/29 11:25:48;;;;;;;7.28;3.53;;;23.50;53.50;;;;;;4934839;29;20036;-75
2022/04/29 11:28:14;;;;;;;4.45;3.85;;;22.90;54.30;;;;;;4937792;28;20103;-74
2022/04/29 11:30:40;;;;;;;4.40;3.15;;;23.20;55.60;;;;;;4938981;28;20091;-74
2022/04/29 11:33:05;;;;;;;5.05;2.92;;;23.20;52.50;;;;;;4938320;28;20096;-74
2022/04/29 11:35:31;;;;;;;3.47;2.90;;;22.90;54.20;;;;;;4938944;29;20033;-73
2022/04/29 11:37:58;;;;;;;3.33;3.00;;;22.90;52.80;;;;;;4938559;29;20509;-74
2022/04/29 11:40:26;;;;;;;4.47;3.10;;;22.90;53.40;;;;;;4955465;28;20046;-74
2022/04/29 11:42:52;;;;;;;5.32;2.90;;;23.10;54.40;;;;;;4955664;28;20039;-75
2022/04/29 11:45:21;;;;;;;4.28;3.05;;;23.30;53.40;;;;;;4956028;28;20032;-75
2022/04/29 11:47:47;;;;;;;3.50;3.20;;;23.60;52.50;;;;;;4957733;28;20140;-74
2022/04/29 11:50:12;;;;;;;4.25;3.03;;;23.80;53.00;;;;;;4939496;28;20036;-74
2022/04/29 11:52:39;;;;;;;2.95;2.65;;;23.60;52.90;;;;;;4940390;28;20035;-74
2022/04/29 11:55:13;;;;;;;4.43;3.10;;;23.80;53.70;;;;;;4943961;28;20046;-74
2022/04/29 11:57:47;;;;;;;5.07;3.28;;;23.60;53.00;;;;;;4944201;28;20046;-74
2022/04/29 12:00:27;;;;;;;6.55;3.20;;;22.90;53.10;;;;;;4952854;28;20047;-74
2022/04/29 12:02:55;;;;;;;3.03;2.72;;;22.50;57.00;;;;;;4938222;28;20138;-75
2022/04/29 12:05:25;;;;;;;5.32;3.25;;;22.40;55.80;;;;;;4997791;23;20138;-77
2022/04/29 12:07:51;;;;;;;7.13;3.55;;;22.10;55.80;;;;;;4977827;28;20035;-77
2022/04/29 12:10:18;;;;;;;5.07;3.50;;;22.30;55.70;;;;;;4985398;28;20023;-78
2022/04/29 12:12:46;;;;;;;3.60;3.10;;;22.40;57.60;;;;;;4961393;28;20040;-77
2022/04/29 12:15:12;;;;;;;4.10;3.20;;;22.50;55.30;;;;;;4961123;28;20059;-78
2022/04/29 12:17:39;;;;;;;4.75;3.50;;;22.70;57.70;;;;;;4963407;28;20074;-78
2022/04/29 12:20:20;;;;;;;5.82;3.00;;;23.20;57.30;;;;;;4982089;28;20082;-78
2022/04/29 12:23:19;;;;;;;4.55;3.10;;;23.60;53.30;;;;;;4964843;28;20050;-78
2022/04/29 12:25:58;;;;;;;6.55;3.40;;;23.30;55.00;;;;;;4966150;28;20042;-78
2022/04/29 12:28:28;;;;;;;3.55;3.00;;;23.50;54.40;;;;;;4980672;28;20079;-79
2022/04/29 12:36:57;;;;;;;5.78;3.83;;;23.00;54.00;;;;;;4982566;28;20047;-79
2022/04/29 12:39:44;;;;;;;6.13;3.40;;;23.30;54.60;;;;;;4981888;28;20041;-78
2022/04/29 12:42:28;;;;;;;4.55;3.70;;;24.00;56.60;;;;;;5118088;28;20444;-78
2022/04/29 12:45:18;;;;;;;4.55;3.95;;;23.60;53.30;;;;;;5102118;27;20051;-78
2022/04/29 12:47:53;;;;;;;6.63;4.07;;;23.70;54.10;;;;;;5120957;28;20096;-78
2022/04/29 12:50:34;;;;;;;3.95;3.50;;;24.10;57.10;;;;;;5106748;28;20024;-77
2022/04/29 12:53:10;;;;;;;4.30;3.80;;;24.50;53.30;;;;;;5121235;27;20102;-77
2022/04/29 12:55:47;;;;;;;4.97;3.45;;;24.40;53.50;;;;;;5107844;28;20029;-78
2022/04/29 12:58:27;;;;;;;5.43;3.45;;;24.70;53.70;;;;;;5103783;28;20044;-78
2022/04/29 13:00:52;;;;;;;5.03;4.03;;;24.70;53.70;;;;;;5103964;28;20056;-78
2022/04/29 13:03:22;;;;;;;5.07;3.35;;;24.40;52.90;;;;;;5116405;28;20039;-80
2022/04/29 13:05:48;;;;;;;4.90;3.33;;;24.30;51.90;;;;;;5119296;28;20123;-78
2022/04/29 13:08:14;;;;;;;5.13;3.60;;;24.20;52.40;;;;;;5107681;27;20532;-80
2022/04/29 13:10:45;;;;;;;5.07;3.45;;;24.10;49.80;;;;;;5095607;28;20534;-80
2022/04/29 13:13:11;;;;;;;3.83;3.42;;;24.70;51.40;;;;;;5115822;28;20047;-80
2022/04/29 13:15:41;;;;;;;5.47;4.65;;;25.10;48.80;;;;;;5098533;28;20383;-80
2022/04/29 13:18:08;;;;;;;14.85;4.57;;;25.10;52.40;;;;;;5097709;28;20533;-81
2022/04/29 13:20:34;;;;;;;8.20;3.55;;;24.30;50.60;;;;;;5092780;28;20071;-83
2022/04/29 13:23:00;;;;;;;16.25;4.78;;;24.40;53.50;;;;;;5096740;28;20033;-82
2022/04/29 13:25:27;;;;;;;4.10;3.70;;;24.10;51.60;;;;;;5110843;28;20032;-81
2022/04/29 13:27:53;;;;;;;4.55;3.50;;;23.70;52.70;;;;;;5115775;28;20033;-81
2022/04/29 13:30:19;;;;;;;5.80;3.80;;;24.20;51.50;;;;;;5109288;28;20043;-82
2022/04/29 13:32:45;;;;;;;3.97;3.40;;;24.50;52.50;;;;;;5092407;28;20078;-82
2022/04/29 13:35:11;;;;;;;6.72;5.00;;;24.60;53.50;;;;;;5090927;28;20056;-82
2022/04/29 13:37:38;;;;;;;5.20;4.07;;;24.70;51.40;;;;;;5109344;28;20115;-82
2022/04/29 13:40:05;;;;;;;5.75;4.28;;;24.30;49.70;;;;;;5100826;28;20041;-80
2022/04/29 13:42:32;;;;;;;5.63;4.07;;;24.40;52.30;;;;;;5082123;28;20041;-82
2022/04/29 13:45:01;;;;;;;6.50;3.90;;;24.70;51.80;;;;;;5113349;28;20143;-82
2022/04/29 13:47:28;;;;;;;3.75;3.20;;;24.90;52.70;;;;;;5098304;28;20273;-82
2022/04/29 13:49:54;;;;;;;5.10;3.40;;;26.30;51.20;;;;;;5095813;28;20761;-80
2022/04/29 13:55:04;;;;;;;4.03;3.63;;;27.40;44.50;;;;;;5102915;28;20118;-82
2022/04/29 13:57:30;;;;;;;3.72;3.28;;;27.80;46.60;;;;;;5098058;28;20033;-82
2022/04/29 13:59:55;;;;;;;4.28;3.88;;;27.70;45.90;;;;;;5092793;28;20037;-82
2022/04/29 14:02:21;;;;;;;4.05;3.33;;;28.00;45.60;;;;;;5078965;28;20056;-81
2022/04/29 14:04:47;;;;;;;5.55;3.90;;;28.10;46.50;;;;;;5080180;28;20029;-82
2022/04/29 14:07:14;;;;;;;4.85;3.97;;;26.90;46.20;;;;;;5089725;28;20040;-82
2022/04/29 14:09:40;;;;;;;7.03;3.78;;;26.40;49.70;;;;;;5100636;28;20517;-84
2022/04/29 14:12:07;;;;;;;4.07;3.67;;;27.30;46.80;;;;;;5100975;28;20116;-84
2022/04/29 14:14:32;;;;;;;6.22;3.63;;;27.60;47.40;;;;;;5100969;28;20036;-82
2022/04/29 14:16:58;;;;;;;7.40;3.95;;;27.30;48.00;;;;;;5104363;28;20025;-84
2022/04/29 14:19:23;;;;;;;6.35;3.95;;;27.10;48.30;;;;;;5103389;28;20036;-82
2022/04/29 14:22:01;;;;;;;4.47;3.53;;;26.00;49.30;;;;;;5108825;28;20119;-82
2022/04/29 14:24:35;;;;;;;4.65;3.63;;;24.90;48.50;;;;;;5094554;28;20052;-84
2022/04/29 14:27:03;;;;;;;5.07;3.67;;;24.20;50.90;;;;;;5089740;28;20164;-84
2022/04/29 14:29:33;;;;;;;6.03;3.60;;;24.00;53.30;;;;;;5084399;28;20025;-84
2022/04/29 14:31:59;;;;;;;6.78;4.25;;;23.50;53.10;;;;;;5094745;28;20033;-80
2022/04/29 14:34:28;;;;;;;4.68;4.22;;;23.30;51.90;;;;;;5092277;28;20036;-81
2022/04/29 14:36:54;;;;;;;4.25;3.85;;;23.20;52.90;;;;;;5095090;28;20086;-80
2022/04/29 14:39:20;;;;;;;3.83;3.45;;;23.50;53.50;;;;;;5101128;28;20131;-83
2022/04/29 14:41:47;;;;;;;7.38;3.63;;;24.00;52.10;;;;;;5104222;28;20123;-81
2022/04/29 14:44:13;;;;;;;3.53;3.00;;;24.00;51.60;;;;;;5097079;28;20850;-81
2022/04/29 14:46:43;;;;;;;5.13;3.63;;;24.30;53.00;;;;;;5089021;28;20044;-81
2022/04/29 14:49:27;;;;;;;5.90;3.63;;;24.30;52.00;;;;;;5109502;28;20036;-81
2022/04/29 14:51:55;;;;;;;7.30;3.60;;;24.00;52.40;;;;;;5107431;28;20111;-82
2022/04/29 14:54:21;;;;;;;4.32;3.30;;;23.60;51.80;;;;;;5104858;28;20038;-81
2022/04/29 14:56:47;;;;;;;3.80;3.35;;;23.20;53.60;;;;;;5124061;28;20043;-80
2022/04/29 14:59:13;;;;;;;4.22;3.30;;;22.80;53.70;;;;;;5112479;28;20028;-81
2022/04/29 15:01:39;;;;;;;5.78;3.63;;;22.40;54.30;;;;;;5086785;28;20048;-79
2022/04/29 15:04:06;;;;;;;7.72;3.42;;;22.40;55.50;;;;;;5094418;28;20522;-81
2022/04/29 15:06:34;;;;;;;4.07;3.60;;;22.10;55.50;;;;;;5082513;28;20028;-81
2022/04/29 15:17:21;;;;;;;4.95;3.15;;;22.40;57.50;;;;;;5096464;28;20036;-82
2022/04/29 15:19:48;;;;;;;4.43;3.47;;;23.10;55.10;;;;;;5110642;28;20856;-82
2022/04/29 15:22:14;;;;;;;4.65;3.33;;;23.10;55.10;;;;;;5113897;28;20040;-82
2022/04/29 15:24:40;;;;;;;5.18;3.65;;;22.90;56.10;;;;;;5098912;28;20371;-82
2022/04/29 15:27:06;;;;;;;5.70;3.20;;;22.40;53.70;;;;;;5101178;28;20483;-82
2022/04/29 15:29:32;;;;;;;6.03;3.40;;;22.10;55.70;;;;;;5102721;28;20021;-81
2022/04/29 15:31:58;;;;;;;5.85;3.00;;;22.20;55.60;;;;;;5113010;28;20040;-82
2022/04/29 15:34:24;;;;;;;5.60;3.55;;;22.00;59.30;;;;;;5083087;28;20033;-81
2022/04/29 15:36:51;;;;;;;4.85;3.17;;;21.80;58.80;;;;;;5081734;28;20036;-82
2022/04/29 15:39:19;;;;;;;4.85;3.15;;;21.70;60.60;;;;;;5084069;28;20021;-82
2022/04/29 15:41:45;;;;;;;6.30;3.45;;;21.60;57.60;;;;;;5097369;28;20044;-80
2022/04/29 15:44:11;;;;;;;4.53;3.30;;;21.60;59.60;;;;;;5112705;28;20035;-82
2022/04/29 15:46:37;;;;;;;3.60;2.97;;;21.30;65.30;;;;;;5096751;28;20048;-80
2022/04/29 15:49:03;;;;;;;3.45;3.13;;;21.20;61.50;;;;;;5095824;28;20114;-80
2022/04/29 15:51:28;;;;;;;4.75;3.60;;;20.90;60.80;;;;;;5098306;28;20036;-80
2022/04/29 15:53:54;;;;;;;4.43;3.20;;;20.80;63.00;;;;;;5095795;28;20028;-81
2022/04/29 15:56:23;;;;;;;3.63;3.33;;;20.70;65.20;;;;;;5096447;28;20079;-80
2022/04/29 15:58:49;;;;;;;4.72;3.22;;;20.60;60.20;;;;;;5097992;28;20036;-80
2022/04/29 16:01:15;;;;;;;5.60;3.03;;;20.80;59.10;;;;;;5097826;28;20040;-80
2022/04/29 16:03:41;;;;;;;5.28;3.47;;;21.60;58.20;;;;;;5098013;28;20036;-78
2022/04/29 16:06:07;;;;;;;3.20;2.75;;;23.60;57.30;;;;;;5097623;28;20032;-85
2022/04/29 16:08:32;;;;;;;3.03;2.72;;;24.70;51.90;;;;;;5097696;28;20028;-85
2022/04/29 16:10:58;;;;;;;5.93;3.28;;;24.90;52.00;;;;;;5091375;28;20470;-86
2022/04/29 16:13:24;;;;;;;3.05;2.60;;;25.60;50.50;;;;;;5083628;28;20035;-79
2022/04/29 16:15:49;;;;;;;4.13;2.92;;;25.00;51.70;;;;;;5097328;28;20037;-82
2022/04/29 16:20:59;;;;;;;3.45;3.15;;;23.80;56.70;;;;;;5095875;28;20041;-79
2022/04/29 16:26:08;;;;;;;4.38;3.00;;;23.60;56.30;;;;;;5096608;28;20024;-79
2022/04/29 16:28:37;;;;;;;3.53;3.22;;;23.40;53.70;;;;;;5096297;28;20482;-78
2022/04/29 16:31:03;;;;;;;5.55;3.03;;;23.20;55.50;;;;;;5095323;28;20119;-78
2022/04/29 16:33:28;;;;;;;7.20;3.10;;;22.60;57.10;;;;;;5095736;28;20119;-78
2022/04/29 16:35:54;;;;;;;3.75;3.35;;;22.20;57.70;;;;;;5095729;28;20561;-79
2022/04/29 16:38:21;;;;;;;4.18;3.08;;;22.00;61.30;;;;;;5094076;28;20121;-79
2022/04/29 16:40:47;;;;;;;4.63;3.28;;;21.70;58.80;;;;;;5102624;28;20044;-76
2022/04/29 16:43:13;;;;;;;3.35;3.05;;;21.40;58.90;;;;;;5101928;28;20037;-76
2022/04/29 16:45:43;;;;;;;6.57;4.28;;;21.00;59.90;;;;;;5088966;27;20043;-76
2022/04/29 16:48:09;;;;;;;4.45;3.50;;;21.00;63.90;;;;;;5103726;28;20043;-75
2022/04/29 16:50:36;;;;;;;5.85;3.53;;;20.80;63.90;;;;;;5096951;27;20514;-75
2022/04/29 16:53:03;;;;;;;4.80;3.60;;;20.50;67.40;;;;;;5082944;28;20025;-73
2022/04/29 16:55:28;;;;;;;4.30;3.28;;;20.50;64.20;;;;;;5094260;28;21316;-73
2022/04/29 17:00:38;;;;;;;3.50;2.97;;;20.20;65.30;;;;;;5091272;28;20044;-73
2022/04/29 17:03:05;;;;;;;3.88;3.30;;;20.10;67.90;;;;;;5108310;28;20024;-72
2022/04/29 17:05:30;;;;;;;4.57;3.15;;;19.90;67.40;;;;;;5091636;28;20064;-72
2022/04/29 17:07:57;;;;;;;6.80;3.63;;;19.80;68.00;;;;;;5093266;28;20072;-73
2022/04/29 17:10:22;;;;;;;4.40;3.00;;;19.50;68.90;;;;;;5105900;28;20048;-73
2022/04/29 17:12:48;;;;;;;5.15;2.92;;;19.40;71.60;;;;;;5107963;28;20067;-74
2022/04/29 17:15:13;;;;;;;5.63;3.42;;;19.30;70.90;;;;;;5107558;27;20041;-73
2022/04/29 17:17:39;;;;;;;6.63;3.30;;;19.00;70.20;;;;;;5096478;28;20044;-72
2022/04/29 17:20:05;;;;;;;5.25;3.22;;;18.70;73.20;;;;;;5074972;28;20087;-72
2022/04/29 17:22:31;;;;;;;5.88;3.33;;;18.60;74.90;;;;;;5079987;28;20108;-72
2022/04/29 17:24:56;;;;;;;6.88;3.50;;;18.50;71.60;;;;;;5110174;27;20194;-72
2022/04/29 17:27:22;;;;;;;4.88;3.38;;;18.30;73.90;;;;;;5077638;28;20052;-72
2022/04/29 17:29:48;;;;;;;4.88;3.50;;;18.20;73.70;;;;;;5090753;28;20494;-73
2022/04/29 17:32:15;;;;;;;4.80;3.75;;;18.20;75.20;;;;;;5093186;28;20456;-73
2022/04/29 17:34:41;;;;;;;4.60;3.50;;;18.10;77.50;;;;;;5092302;28;20040;-73